createdAt,value
2022-08-28T00:02:00.233Z,17.00
2022-08-28T00:07:02.966Z,16.78
2022-08-28T00:12:06.145Z,17.63
2022-08-28T00:17:08.961Z,17.21
2022-08-28T00:22:11.741Z,16.95
2022-08-28T00:27:32.279Z,16.92
2022-08-28T00:32:36.178Z,16.85
2022-08-28T00:37:40.102Z,16.86
2022-08-28T00:42:42.957Z,16.81
2022-08-28T00:47:45.945Z,16.82
2022-08-28T00:52:48.758Z,16.73
2022-08-28T00:57:51.729Z,16.73
2022-08-28T01:02:54.628Z,16.67
2022-08-28T01:07:58.738Z,16.66
2022-08-28T01:13:01.504Z,16.72
2022-08-28T01:18:08.022Z,16.65
2022-08-28T01:23:11.249Z,16.61
2022-08-28T01:28:14.434Z,16.61
2022-08-28T01:33:19.394Z,16.71
2022-08-28T01:38:30.725Z,16.72
2022-08-28T01:43:33.648Z,16.70
2022-08-28T01:48:37.074Z,16.70
2022-08-28T01:53:39.954Z,16.67
2022-08-28T01:58:42.651Z,16.62
2022-08-28T02:03:45.580Z,16.60
2022-08-28T02:08:49.995Z,16.58
2022-08-28T02:13:52.805Z,16.60
2022-08-28T02:18:57.161Z,16.59
2022-08-28T02:23:59.966Z,16.57
2022-08-28T02:29:02.689Z,16.54
2022-08-28T02:34:06.075Z,16.52
2022-08-28T02:39:08.962Z,16.48
2022-08-28T02:44:11.689Z,16.44
2022-08-28T02:49:14.484Z,16.48
2022-08-28T02:54:18.474Z,16.49
2022-08-28T02:59:21.399Z,16.46
2022-08-28T03:04:24.469Z,16.41
2022-08-28T03:09:27.197Z,16.46
2022-08-28T03:14:30.941Z,16.46
2022-08-28T03:19:33.757Z,16.46
2022-08-28T03:24:37.530Z,16.52
2022-08-28T03:29:40.375Z,16.51
2022-08-28T03:34:43.264Z,16.49
2022-08-28T03:39:46.132Z,16.48
2022-08-28T03:44:49.399Z,16.41
2022-08-28T03:49:52.783Z,16.48
2022-08-28T03:54:55.974Z,16.42
2022-08-28T03:59:58.813Z,16.46
2022-08-28T04:05:01.671Z,16.48
2022-08-28T04:10:04.561Z,16.52
2022-08-28T04:15:07.355Z,16.48
2022-08-28T04:20:10.923Z,16.55
2022-08-28T04:25:13.812Z,16.56
2022-08-28T04:30:16.586Z,16.58
2022-08-28T04:35:19.720Z,16.56
2022-08-28T04:40:22.696Z,16.59
2022-08-28T04:45:25.938Z,16.64
2022-08-28T04:50:28.677Z,16.66
2022-08-28T04:55:53.541Z,16.69
2022-08-28T05:00:54.555Z,16.75
2022-08-28T05:05:57.453Z,16.75
2022-08-28T05:11:00.626Z,16.77
2022-08-28T05:16:03.904Z,16.79
2022-08-28T05:21:06.809Z,16.74
2022-08-28T05:26:09.524Z,16.74
2022-08-28T05:31:12.344Z,16.71
2022-08-28T05:36:15.306Z,16.70
2022-08-28T05:41:18.160Z,16.76
2022-08-28T05:46:20.889Z,16.83
2022-08-28T05:51:23.968Z,16.84
2022-08-28T05:56:29.506Z,16.92
2022-08-28T06:01:32.289Z,17.01
2022-08-28T06:06:35.594Z,17.17
2022-08-28T06:11:39.037Z,17.38
2022-08-28T06:16:47.644Z,17.51
2022-08-28T06:21:51.762Z,17.59
2022-08-28T06:26:56.559Z,17.48
2022-08-28T06:32:01.596Z,17.40
2022-08-28T06:37:04.581Z,17.55
2022-08-28T06:42:07.332Z,17.51
2022-08-28T06:47:11.593Z,17.52
2022-08-28T06:52:14.269Z,17.43
2022-08-28T06:57:17.129Z,17.70
2022-08-28T07:02:20.169Z,17.77
2022-08-28T07:07:32.400Z,18.08
2022-08-28T07:12:35.838Z,18.42
2022-08-28T07:17:38.598Z,18.28
2022-08-28T07:22:42.137Z,18.32
2022-08-28T07:27:45.223Z,18.23
2022-08-28T07:32:49.946Z,18.46
2022-08-28T07:37:52.818Z,17.83
2022-08-28T07:43:13.129Z,17.13
2022-08-28T07:48:16.792Z,16.79
2022-08-28T07:53:25.549Z,16.64
2022-08-28T07:58:28.423Z,16.66
2022-08-28T08:03:32.698Z,16.55
2022-08-28T08:08:35.585Z,16.46
2022-08-28T08:13:38.280Z,16.45
2022-08-28T08:18:41.941Z,16.54
2022-08-28T08:23:44.645Z,16.66
2022-08-28T08:28:47.354Z,16.84
2022-08-28T08:33:50.180Z,16.85
2022-08-28T08:38:59.147Z,17.01
2022-08-28T08:44:03.021Z,16.96
2022-08-28T08:49:06.030Z,17.10
2022-08-28T08:54:08.755Z,17.10
2022-08-28T08:59:11.810Z,17.14
2022-08-28T09:04:15.785Z,17.18
2022-08-28T09:09:18.753Z,17.16
2022-08-28T09:14:21.599Z,17.21
2022-08-28T09:19:29.743Z,17.28
2022-08-28T09:24:33.086Z,17.24
2022-08-28T09:29:36.215Z,17.33
2022-08-28T09:34:39.261Z,17.49
2022-08-28T09:39:45.557Z,17.50
2022-08-28T09:44:51.969Z,17.44
2022-08-28T09:49:55.003Z,17.39
2022-08-28T09:54:57.745Z,17.29
2022-08-28T10:00:00.634Z,17.28
2022-08-28T10:05:03.477Z,17.16
2022-08-28T10:10:07.611Z,17.12
2022-08-28T10:15:10.425Z,17.32
2022-08-28T10:20:13.197Z,17.37
2022-08-28T10:25:16.229Z,17.58
2022-08-28T10:30:19.380Z,17.62
2022-08-28T10:35:22.198Z,17.67
2022-08-28T10:40:25.008Z,17.87
2022-08-28T10:45:27.810Z,17.92
2022-08-28T10:50:30.693Z,18.02
2022-08-28T10:55:34.990Z,18.00
2022-08-28T11:00:39.362Z,18.15
2022-08-28T11:05:52.457Z,18.23
2022-08-28T11:10:56.376Z,18.32
2022-08-28T11:15:59.253Z,18.40
2022-08-28T11:21:02.041Z,18.42
2022-08-28T11:26:04.775Z,18.64
2022-08-28T11:31:07.728Z,18.79
2022-08-28T11:36:10.613Z,19.04
2022-08-28T11:41:14.518Z,19.30
2022-08-28T11:46:19.950Z,19.38
2022-08-28T11:51:26.410Z,19.48
2022-08-28T11:56:31.874Z,19.50
2022-08-28T12:01:35.468Z,19.75
2022-08-28T12:06:39.152Z,19.85
2022-08-28T12:11:41.934Z,20.13
2022-08-28T12:16:44.851Z,20.28
2022-08-28T12:21:47.748Z,20.50
2022-08-28T12:26:51.258Z,20.89
2022-08-28T12:32:12.650Z,21.09
2022-08-28T12:37:15.367Z,21.61
2022-08-28T12:42:18.129Z,22.04
2022-08-28T12:47:22.922Z,22.64
2022-08-28T12:52:25.692Z,22.89
2022-08-28T12:57:28.687Z,23.20
2022-08-28T13:02:33.712Z,22.84
2022-08-28T13:07:37.139Z,22.43
2022-08-28T13:12:56.024Z,22.17
2022-08-28T13:18:00.985Z,21.75
2022-08-28T13:23:03.784Z,21.53
2022-08-28T13:28:06.506Z,21.77
2022-08-28T13:33:10.411Z,21.70
2022-08-28T13:38:13.471Z,21.93
2022-08-28T13:43:16.398Z,21.92
2022-08-28T13:48:19.271Z,22.04
2022-08-28T13:53:22.688Z,22.08
2022-08-28T13:58:26.458Z,22.02
2022-08-28T14:03:39.226Z,22.24
2022-08-28T14:08:43.390Z,22.48
2022-08-28T14:13:55.111Z,22.51
2022-08-28T14:19:04.153Z,22.61
2022-08-28T14:24:07.122Z,23.20
2022-08-28T14:29:09.928Z,22.91
2022-08-28T14:34:12.774Z,23.51
2022-08-28T14:39:15.642Z,23.58
2022-08-28T14:44:18.862Z,23.55
2022-08-28T14:49:22.019Z,23.54
2022-08-28T14:54:24.926Z,22.97
2022-08-28T14:59:28.916Z,22.26
2022-08-28T15:04:34.775Z,20.60
2022-08-28T15:09:37.815Z,19.75
2022-08-28T15:14:40.971Z,19.05
2022-08-28T15:20:00.427Z,19.27
2022-08-28T15:25:03.314Z,19.93
2022-08-28T15:30:06.029Z,20.97
2022-08-28T15:35:08.863Z,21.41
2022-08-28T15:40:29.538Z,21.52
2022-08-28T15:45:32.693Z,21.70
2022-08-28T15:50:36.101Z,21.46
2022-08-28T15:55:39.554Z,21.38
2022-08-28T16:00:42.906Z,21.11
2022-08-28T16:05:46.221Z,20.65
2022-08-28T16:10:49.988Z,20.46
2022-08-28T16:15:53.128Z,20.43
2022-08-28T16:20:56.021Z,20.18
2022-08-28T16:26:16.206Z,20.15
2022-08-28T16:31:19.693Z,19.98
2022-08-28T16:36:25.253Z,19.76
2022-08-28T16:41:28.466Z,19.78
2022-08-28T16:46:32.718Z,19.71
2022-08-28T16:51:35.603Z,19.80
2022-08-28T16:56:39.529Z,19.91
2022-08-28T17:01:46.168Z,19.93
2022-08-28T17:06:59.673Z,19.86
2022-08-28T17:12:03.934Z,19.81
2022-08-28T17:17:08.358Z,19.71
2022-08-28T17:22:28.902Z,19.49
2022-08-28T17:27:33.326Z,19.20
2022-08-28T17:32:45.825Z,19.03
2022-08-28T17:37:50.786Z,18.92
2022-08-28T17:42:54.003Z,18.88
2022-08-28T17:47:56.868Z,18.82
2022-08-28T17:53:00.117Z,18.76
2022-08-28T17:58:03.346Z,18.68
2022-08-28T18:03:07.578Z,18.62
2022-08-28T18:08:10.775Z,18.61
2022-08-28T18:13:15.181Z,18.56
2022-08-28T18:18:18.092Z,18.60
2022-08-28T18:23:22.932Z,18.49
2022-08-28T18:28:26.819Z,18.27
2022-08-28T18:33:29.695Z,18.18
2022-08-28T18:38:35.169Z,18.13
2022-08-28T18:43:38.499Z,18.03
2022-08-28T18:48:41.852Z,17.92
2022-08-28T18:53:45.146Z,17.80
2022-08-28T18:58:48.903Z,17.77
2022-08-28T19:03:59.104Z,17.82
2022-08-28T19:09:32.233Z,17.92
2022-08-28T19:14:36.025Z,17.82
2022-08-28T19:19:38.871Z,17.76
2022-08-28T19:24:42.289Z,17.71
2022-08-28T19:29:45.488Z,17.67
2022-08-28T19:34:49.349Z,17.61
2022-08-28T19:39:56.396Z,17.49
2022-08-28T19:45:00.923Z,17.39
2022-08-28T19:50:05.239Z,17.27
2022-08-28T19:55:08.461Z,17.18
2022-08-28T20:00:11.656Z,17.14
2022-08-28T20:05:14.712Z,17.21
2022-08-28T20:10:17.621Z,17.22
2022-08-28T20:15:20.873Z,17.21
2022-08-28T20:20:29.769Z,17.16
2022-08-28T20:25:34.918Z,17.08
2022-08-28T20:30:39.408Z,16.97
2022-08-28T20:35:42.572Z,16.87
2022-08-28T20:40:46.717Z,16.83
2022-08-28T20:45:49.809Z,16.79
2022-08-28T20:50:55.748Z,16.70
2022-08-28T20:55:58.761Z,16.67
2022-08-28T21:01:01.939Z,16.62
2022-08-28T21:06:04.956Z,16.54
2022-08-28T21:11:30.968Z,16.49
2022-08-28T21:16:35.084Z,16.40
2022-08-28T21:21:37.982Z,16.37
2022-08-28T21:26:42.707Z,16.30
2022-08-28T21:31:48.294Z,16.25
2022-08-28T21:36:51.050Z,16.23
2022-08-28T21:41:53.765Z,16.15
2022-08-28T21:46:56.493Z,16.13
2022-08-28T21:52:01.370Z,16.10
2022-08-28T21:57:04.453Z,16.05
2022-08-28T22:02:11.217Z,16.00
2022-08-28T22:07:14.358Z,15.95
2022-08-28T22:12:17.519Z,15.89
2022-08-28T22:17:20.341Z,15.84
2022-08-28T22:22:41.298Z,15.84
2022-08-28T22:27:44.033Z,15.84
2022-08-28T22:32:46.923Z,15.83
2022-08-28T22:37:49.871Z,15.79
2022-08-28T22:42:52.626Z,15.74
2022-08-28T22:47:55.388Z,15.70
2022-08-28T22:52:58.339Z,15.67
2022-08-28T22:58:01.076Z,15.70
2022-08-28T23:03:04.170Z,15.65
2022-08-28T23:08:06.938Z,15.59
2022-08-28T23:13:09.718Z,15.60
2022-08-28T23:18:17.443Z,15.61
2022-08-28T23:23:21.650Z,15.50
2022-08-28T23:28:24.469Z,15.51
2022-08-28T23:33:27.192Z,15.50
2022-08-28T23:38:30.232Z,15.50
2022-08-28T23:43:33.009Z,15.46
2022-08-28T23:48:35.730Z,15.41
2022-08-28T23:53:38.567Z,15.39
2022-08-28T23:58:43.203Z,15.33
